Ellery, Illinois
Current Conditions -  °F | °C
As of 1:55 AM on Wednesday 22 Oct 2014 (Local Time) from KFWC Reporting Station
Clear Clear  
Wind Chill: 41°   Ceiling: Unl
Heat Index: 43°   Visibility: 10mi
Dew Point: 41°   Wind: 5mph
Humidity: 92%   Direction: 360°N
Pressure: 30.21"   Gusts: NA
Location:  38.35°N, 88.15°W
Report Text: KFWC 220655Z AUTO 36004KT 10SM CLR 06/05 A3021 RMK AO1 T00630051
Loading
Personal Weather Stations






























Interactive Weather Map
Tropical Storm Tracking
New forecast layout! Learn more

10-Day Weather Forecast

Advertisements
Track Severe Weather on mobile